sensor_id;sensor_type;location;lat;lon;timestamp;temperature;humidity
18321;DHT22;54904;54.350;18.664;2022-09-03T00:02:15;18.60;82.60
18321;DHT22;54904;54.350;18.664;2022-09-03T00:04:52;18.60;82.60
18321;DHT22;54904;54.350;18.664;2022-09-03T00:07:27;18.60;82.70
18321;DHT22;54904;54.350;18.664;2022-09-03T00:10:03;18.60;82.70
18321;DHT22;54904;54.350;18.664;2022-09-03T00:12:33;18.60;82.80
18321;DHT22;54904;54.350;18.664;2022-09-03T00:15:05;18.60;82.70
18321;DHT22;54904;54.350;18.664;2022-09-03T00:17:35;18.60;82.90
18321;DHT22;54904;54.350;18.664;2022-09-03T00:20:07;18.60;82.90
18321;DHT22;54904;54.350;18.664;2022-09-03T00:22:37;18.60;82.90
18321;DHT22;54904;54.350;18.664;2022-09-03T00:25:11;18.60;82.80
18321;DHT22;54904;54.350;18.664;2022-09-03T00:27:40;18.60;82.90
18321;DHT22;54904;54.350;18.664;2022-09-03T00:30:12;18.50;82.80
18321;DHT22;54904;54.350;18.664;2022-09-03T00:32:41;18.50;82.80
18321;DHT22;54904;54.350;18.664;2022-09-03T00:35:15;18.50;82.90
18321;DHT22;54904;54.350;18.664;2022-09-03T00:37:45;18.50;83.00
18321;DHT22;54904;54.350;18.664;2022-09-03T00:40:41;18.50;83.10
18321;DHT22;54904;54.350;18.664;2022-09-03T00:43:19;18.50;83.10
18321;DHT22;54904;54.350;18.664;2022-09-03T00:45:56;18.50;84.00
18321;DHT22;54904;54.350;18.664;2022-09-03T00:48:34;18.50;83.30
18321;DHT22;54904;54.350;18.664;2022-09-03T00:51:12;18.40;83.20
18321;DHT22;54904;54.350;18.664;2022-09-03T00:53:50;18.40;83.30
18321;DHT22;54904;54.350;18.664;2022-09-03T00:56:29;18.40;83.30
18321;DHT22;54904;54.350;18.664;2022-09-03T00:59:10;18.40;83.30
18321;DHT22;54904;54.350;18.664;2022-09-03T01:01:45;18.40;83.50
18321;DHT22;54904;54.350;18.664;2022-09-03T01:04:27;18.40;83.50
18321;DHT22;54904;54.350;18.664;2022-09-03T01:07:06;18.40;83.30
18321;DHT22;54904;54.350;18.664;2022-09-03T01:09:46;18.40;83.20
18321;DHT22;54904;54.350;18.664;2022-09-03T01:12:25;18.40;83.20
18321;DHT22;54904;54.350;18.664;2022-09-03T01:15:05;18.40;83.20
18321;DHT22;54904;54.350;18.664;2022-09-03T01:17:45;18.40;83.40
18321;DHT22;54904;54.350;18.664;2022-09-03T01:20:37;18.40;83.60
18321;DHT22;54904;54.350;18.664;2022-09-03T01:23:24;18.40;83.70
18321;DHT22;54904;54.350;18.664;2022-09-03T01:26:00;18.40;83.80
18321;DHT22;54904;54.350;18.664;2022-09-03T01:28:54;18.40;84.90
18321;DHT22;54904;54.350;18.664;2022-09-03T01:31:31;18.50;84.40
18321;DHT22;54904;54.350;18.664;2022-09-03T01:34:09;18.50;84.70
18321;DHT22;54904;54.350;18.664;2022-09-03T01:36:54;18.50;85.10
18321;DHT22;54904;54.350;18.664;2022-09-03T01:39:30;18.40;85.30
18321;DHT22;54904;54.350;18.664;2022-09-03T01:42:09;18.40;85.60
18321;DHT22;54904;54.350;18.664;2022-09-03T01:45:08;18.40;85.90
18321;DHT22;54904;54.350;18.664;2022-09-03T01:47:47;18.30;85.90
18321;DHT22;54904;54.350;18.664;2022-09-03T01:50:26;18.30;86.10
18321;DHT22;54904;54.350;18.664;2022-09-03T01:53:04;18.30;86.40
18321;DHT22;54904;54.350;18.664;2022-09-03T01:55:43;18.30;87.20
18321;DHT22;54904;54.350;18.664;2022-09-03T01:58:14;18.20;87.50
18321;DHT22;54904;54.350;18.664;2022-09-03T02:00:46;18.20;87.70
18321;DHT22;54904;54.350;18.664;2022-09-03T02:03:15;18.10;87.70
18321;DHT22;54904;54.350;18.664;2022-09-03T02:05:42;18.10;88.10
18321;DHT22;54904;54.350;18.664;2022-09-03T02:08:12;18.10;88.30
18321;DHT22;54904;54.350;18.664;2022-09-03T02:10:41;18.10;88.50
18321;DHT22;54904;54.350;18.664;2022-09-03T02:13:12;18.10;88.60
18321;DHT22;54904;54.350;18.664;2022-09-03T02:15:44;18.10;88.80
18321;DHT22;54904;54.350;18.664;2022-09-03T02:18:15;18.10;88.80
18321;DHT22;54904;54.350;18.664;2022-09-03T02:20:44;18.00;88.70
18321;DHT22;54904;54.350;18.664;2022-09-03T02:23:13;18.00;88.90
18321;DHT22;54904;54.350;18.664;2022-09-03T02:25:44;18.00;89.20
18321;DHT22;54904;54.350;18.664;2022-09-03T02:28:13;17.90;89.20
18321;DHT22;54904;54.350;18.664;2022-09-03T02:30:41;17.90;89.50
18321;DHT22;54904;54.350;18.664;2022-09-03T02:33:09;17.90;89.70
18321;DHT22;54904;54.350;18.664;2022-09-03T02:35:36;17.80;89.80
18321;DHT22;54904;54.350;18.664;2022-09-03T02:38:09;17.80;90.00
18321;DHT22;54904;54.350;18.664;2022-09-03T02:40:36;17.80;90.10
18321;DHT22;54904;54.350;18.664;2022-09-03T02:43:07;17.80;90.20
18321;DHT22;54904;54.350;18.664;2022-09-03T02:45:40;17.80;90.20
18321;DHT22;54904;54.350;18.664;2022-09-03T02:48:13;17.80;90.30
18321;DHT22;54904;54.350;18.664;2022-09-03T02:50:42;17.70;90.30
18321;DHT22;54904;54.350;18.664;2022-09-03T02:53:09;17.70;90.50
18321;DHT22;54904;54.350;18.664;2022-09-03T02:55:36;17.70;90.50
18321;DHT22;54904;54.350;18.664;2022-09-03T02:58:03;17.70;90.60
18321;DHT22;54904;54.350;18.664;2022-09-03T03:00:33;17.70;90.90
18321;DHT22;54904;54.350;18.664;2022-09-03T03:03:00;17.70;90.60
18321;DHT22;54904;54.350;18.664;2022-09-03T03:05:34;17.70;90.70
18321;DHT22;54904;54.350;18.664;2022-09-03T03:08:06;17.70;90.70
18321;DHT22;54904;54.350;18.664;2022-09-03T03:10:33;17.70;90.70
18321;DHT22;54904;54.350;18.664;2022-09-03T03:13:01;17.70;90.70
18321;DHT22;54904;54.350;18.664;2022-09-03T03:15:28;17.70;90.70
18321;DHT22;54904;54.350;18.664;2022-09-03T03:17:55;17.70;90.70
18321;DHT22;54904;54.350;18.664;2022-09-03T03:20:22;17.70;90.70
18321;DHT22;54904;54.350;18.664;2022-09-03T03:22:51;17.70;90.70
18321;DHT22;54904;54.350;18.664;2022-09-03T03:25:18;17.70;90.70
18321;DHT22;54904;54.350;18.664;2022-09-03T03:27:45;17.70;90.80
18321;DHT22;54904;54.350;18.664;2022-09-03T03:30:12;17.70;90.80
18321;DHT22;54904;54.350;18.664;2022-09-03T03:32:39;17.70;90.70
18321;DHT22;54904;54.350;18.664;2022-09-03T03:35:07;17.70;90.80
18321;DHT22;54904;54.350;18.664;2022-09-03T03:37:36;17.70;90.80
18321;DHT22;54904;54.350;18.664;2022-09-03T03:40:05;17.70;90.80
18321;DHT22;54904;54.350;18.664;2022-09-03T03:42:33;17.70;90.80
18321;DHT22;54904;54.350;18.664;2022-09-03T03:45:00;17.60;90.80
18321;DHT22;54904;54.350;18.664;2022-09-03T03:47:27;17.60;90.90
18321;DHT22;54904;54.350;18.664;2022-09-03T03:49:55;17.50;91.00
18321;DHT22;54904;54.350;18.664;2022-09-03T03:52:23;17.50;91.10
18321;DHT22;54904;54.350;18.664;2022-09-03T03:54:50;17.50;91.10
18321;DHT22;54904;54.350;18.664;2022-09-03T03:57:19;17.50;91.00
18321;DHT22;54904;54.350;18.664;2022-09-03T03:59:47;17.60;91.10
18321;DHT22;54904;54.350;18.664;2022-09-03T04:02:15;17.60;91.00
18321;DHT22;54904;54.350;18.664;2022-09-03T04:04:42;17.60;90.90
18321;DHT22;54904;54.350;18.664;2022-09-03T04:07:09;17.60;90.80
18321;DHT22;54904;54.350;18.664;2022-09-03T04:09:36;17.60;90.80
18321;DHT22;54904;54.350;18.664;2022-09-03T04:12:03;17.50;90.80
18321;DHT22;54904;54.350;18.664;2022-09-03T04:14:34;17.50;90.80
18321;DHT22;54904;54.350;18.664;2022-09-03T04:17:02;17.50;90.80
18321;DHT22;54904;54.350;18.664;2022-09-03T04:19:29;17.50;90.90
18321;DHT22;54904;54.350;18.664;2022-09-03T04:21:56;17.50;90.90
18321;DHT22;54904;54.350;18.664;2022-09-03T04:24:23;17.50;90.80
18321;DHT22;54904;54.350;18.664;2022-09-03T04:26:50;17.50;90.80
18321;DHT22;54904;54.350;18.664;2022-09-03T04:29:18;17.50;90.70
18321;DHT22;54904;54.350;18.664;2022-09-03T04:31:47;17.50;90.70
18321;DHT22;54904;54.350;18.664;2022-09-03T04:34:28;17.50;90.70
18321;DHT22;54904;54.350;18.664;2022-09-03T04:36:55;17.60;90.80
18321;DHT22;54904;54.350;18.664;2022-09-03T04:39:23;17.60;90.70
18321;DHT22;54904;54.350;18.664;2022-09-03T04:41:50;17.50;90.50
18321;DHT22;54904;54.350;18.664;2022-09-03T04:44:17;17.50;90.40
18321;DHT22;54904;54.350;18.664;2022-09-03T04:46:44;17.50;90.30
18321;DHT22;54904;54.350;18.664;2022-09-03T04:49:13;17.50;90.20
18321;DHT22;54904;54.350;18.664;2022-09-03T04:51:41;17.50;90.20
18321;DHT22;54904;54.350;18.664;2022-09-03T04:54:09;17.40;90.10
18321;DHT22;54904;54.350;18.664;2022-09-03T04:56:38;17.40;90.10
18321;DHT22;54904;54.350;18.664;2022-09-03T04:59:06;17.40;90.10
18321;DHT22;54904;54.350;18.664;2022-09-03T05:01:35;17.40;90.00
18321;DHT22;54904;54.350;18.664;2022-09-03T05:04:03;17.40;89.60
18321;DHT22;54904;54.350;18.664;2022-09-03T05:06:33;17.40;89.50
18321;DHT22;54904;54.350;18.664;2022-09-03T05:09:01;17.50;89.50
18321;DHT22;54904;54.350;18.664;2022-09-03T05:11:29;17.40;89.40
18321;DHT22;54904;54.350;18.664;2022-09-03T05:13:57;17.40;89.50
18321;DHT22;54904;54.350;18.664;2022-09-03T05:16:25;17.40;89.70
18321;DHT22;54904;54.350;18.664;2022-09-03T05:18:55;17.40;89.90
18321;DHT22;54904;54.350;18.664;2022-09-03T05:21:24;17.40;90.00
18321;DHT22;54904;54.350;18.664;2022-09-03T05:23:53;17.30;89.90
18321;DHT22;54904;54.350;18.664;2022-09-03T05:26:21;17.40;90.00
18321;DHT22;54904;54.350;18.664;2022-09-03T05:28:52;17.30;89.80
18321;DHT22;54904;54.350;18.664;2022-09-03T05:31:20;17.30;89.80
18321;DHT22;54904;54.350;18.664;2022-09-03T05:33:48;17.40;89.80
18321;DHT22;54904;54.350;18.664;2022-09-03T05:36:18;17.40;89.80
18321;DHT22;54904;54.350;18.664;2022-09-03T05:38:47;17.40;89.60
18321;DHT22;54904;54.350;18.664;2022-09-03T05:41:16;17.40;89.80
18321;DHT22;54904;54.350;18.664;2022-09-03T05:43:43;17.40;89.40
18321;DHT22;54904;54.350;18.664;2022-09-03T05:46:12;17.40;89.30
18321;DHT22;54904;54.350;18.664;2022-09-03T05:48:41;17.30;89.30
18321;DHT22;54904;54.350;18.664;2022-09-03T05:51:10;17.30;89.30
18321;DHT22;54904;54.350;18.664;2022-09-03T05:53:38;17.30;89.50
18321;DHT22;54904;54.350;18.664;2022-09-03T05:56:07;17.30;89.50
18321;DHT22;54904;54.350;18.664;2022-09-03T05:58:38;17.30;89.50
18321;DHT22;54904;54.350;18.664;2022-09-03T06:01:10;17.40;89.60
18321;DHT22;54904;54.350;18.664;2022-09-03T06:03:37;17.40;89.50
18321;DHT22;54904;54.350;18.664;2022-09-03T06:06:05;17.40;89.40
18321;DHT22;54904;54.350;18.664;2022-09-03T06:08:32;17.40;89.20
18321;DHT22;54904;54.350;18.664;2022-09-03T06:10:59;17.30;89.10
18321;DHT22;54904;54.350;18.664;2022-09-03T06:13:28;17.40;89.20
18321;DHT22;54904;54.350;18.664;2022-09-03T06:15:58;17.40;89.10
18321;DHT22;54904;54.350;18.664;2022-09-03T06:18:26;17.40;89.10
18321;DHT22;54904;54.350;18.664;2022-09-03T06:20:54;17.50;88.90
18321;DHT22;54904;54.350;18.664;2022-09-03T06:23:21;17.50;88.30
18321;DHT22;54904;54.350;18.664;2022-09-03T06:25:58;17.60;88.10
18321;DHT22;54904;54.350;18.664;2022-09-03T06:28:26;17.60;87.90
18321;DHT22;54904;54.350;18.664;2022-09-03T06:30:56;17.70;87.80
18321;DHT22;54904;54.350;18.664;2022-09-03T06:33:24;17.80;87.80
18321;DHT22;54904;54.350;18.664;2022-09-03T06:35:53;17.80;87.70
18321;DHT22;54904;54.350;18.664;2022-09-03T06:38:22;17.90;87.60
18321;DHT22;54904;54.350;18.664;2022-09-03T06:40:54;18.00;87.50
18321;DHT22;54904;54.350;18.664;2022-09-03T06:43:22;18.10;87.40
18321;DHT22;54904;54.350;18.664;2022-09-03T06:45:53;18.20;87.30
18321;DHT22;54904;54.350;18.664;2022-09-03T06:48:20;18.30;87.30
18321;DHT22;54904;54.350;18.664;2022-09-03T06:50:56;18.40;87.40
18321;DHT22;54904;54.350;18.664;2022-09-03T06:53:24;18.40;87.40
18321;DHT22;54904;54.350;18.664;2022-09-03T06:55:53;18.50;87.20
18321;DHT22;54904;54.350;18.664;2022-09-03T06:58:20;18.50;86.20
18321;DHT22;54904;54.350;18.664;2022-09-03T07:00:48;18.60;85.20
18321;DHT22;54904;54.350;18.664;2022-09-03T07:03:17;18.60;85.00
18321;DHT22;54904;54.350;18.664;2022-09-03T07:05:44;18.70;84.90
18321;DHT22;54904;54.350;18.664;2022-09-03T07:08:12;18.70;83.40
18321;DHT22;54904;54.350;18.664;2022-09-03T07:10:44;18.80;83.30
18321;DHT22;54904;54.350;18.664;2022-09-03T07:13:12;18.80;83.20
18321;DHT22;54904;54.350;18.664;2022-09-03T07:15:39;18.90;83.50
18321;DHT22;54904;54.350;18.664;2022-09-03T07:18:07;19.00;83.00
18321;DHT22;54904;54.350;18.664;2022-09-03T07:20:34;19.00;81.00
18321;DHT22;54904;54.350;18.664;2022-09-03T07:23:03;19.00;81.20
18321;DHT22;54904;54.350;18.664;2022-09-03T07:25:32;19.00;80.80
18321;DHT22;54904;54.350;18.664;2022-09-03T07:27:59;19.00;81.00
18321;DHT22;54904;54.350;18.664;2022-09-03T07:30:26;19.00;81.60
18321;DHT22;54904;54.350;18.664;2022-09-03T07:32:53;19.00;80.60
18321;DHT22;54904;54.350;18.664;2022-09-03T07:35:20;19.00;80.60
18321;DHT22;54904;54.350;18.664;2022-09-03T07:37:50;19.00;80.40
18321;DHT22;54904;54.350;18.664;2022-09-03T07:40:17;19.10;80.70
18321;DHT22;54904;54.350;18.664;2022-09-03T07:42:46;19.10;80.80
18321;DHT22;54904;54.350;18.664;2022-09-03T07:45:14;19.10;80.60
18321;DHT22;54904;54.350;18.664;2022-09-03T07:47:46;19.10;80.20
18321;DHT22;54904;54.350;18.664;2022-09-03T07:50:14;19.20;80.30
18321;DHT22;54904;54.350;18.664;2022-09-03T07:52:42;19.20;79.10
18321;DHT22;54904;54.350;18.664;2022-09-03T07:55:09;19.10;78.10
18321;DHT22;54904;54.350;18.664;2022-09-03T07:57:36;19.10;78.10
18321;DHT22;54904;54.350;18.664;2022-09-03T08:00:06;19.10;78.20
18321;DHT22;54904;54.350;18.664;2022-09-03T08:02:37;19.10;77.50
18321;DHT22;54904;54.350;18.664;2022-09-03T08:05:05;19.10;77.70
18321;DHT22;54904;54.350;18.664;2022-09-03T08:07:32;19.10;77.70
18321;DHT22;54904;54.350;18.664;2022-09-03T08:09:59;19.10;76.70
18321;DHT22;54904;54.350;18.664;2022-09-03T08:12:26;19.20;76.20
18321;DHT22;54904;54.350;18.664;2022-09-03T08:14:53;19.20;76.10
18321;DHT22;54904;54.350;18.664;2022-09-03T08:17:24;19.30;76.30
18321;DHT22;54904;54.350;18.664;2022-09-03T08:19:50;19.40;76.60
18321;DHT22;54904;54.350;18.664;2022-09-03T08:22:17;19.50;74.00
18321;DHT22;54904;54.350;18.664;2022-09-03T08:24:47;19.50;72.50
18321;DHT22;54904;54.350;18.664;2022-09-03T08:27:15;19.50;72.60
18321;DHT22;54904;54.350;18.664;2022-09-03T08:29:42;19.50;73.40
18321;DHT22;54904;54.350;18.664;2022-09-03T08:32:11;19.60;74.00
18321;DHT22;54904;54.350;18.664;2022-09-03T08:34:39;19.70;74.30
18321;DHT22;54904;54.350;18.664;2022-09-03T08:37:06;19.70;73.60
18321;DHT22;54904;54.350;18.664;2022-09-03T08:39:34;19.70;73.10
18321;DHT22;54904;54.350;18.664;2022-09-03T08:42:20;19.80;72.40
18321;DHT22;54904;54.350;18.664;2022-09-03T08:44:52;19.80;73.30
18321;DHT22;54904;54.350;18.664;2022-09-03T08:47:22;19.90;72.50
18321;DHT22;54904;54.350;18.664;2022-09-03T08:49:55;19.90;72.60
18321;DHT22;54904;54.350;18.664;2022-09-03T08:52:27;19.90;71.50
18321;DHT22;54904;54.350;18.664;2022-09-03T08:55:02;19.90;71.30
18321;DHT22;54904;54.350;18.664;2022-09-03T08:57:35;20.00;71.40
18321;DHT22;54904;54.350;18.664;2022-09-03T09:00:04;20.10;72.10
18321;DHT22;54904;54.350;18.664;2022-09-03T09:02:36;20.20;72.30
18321;DHT22;54904;54.350;18.664;2022-09-03T09:05:13;20.30;72.20
18321;DHT22;54904;54.350;18.664;2022-09-03T09:07:45;20.40;72.10
18321;DHT22;54904;54.350;18.664;2022-09-03T09:10:19;20.40;72.10
18321;DHT22;54904;54.350;18.664;2022-09-03T09:12:58;20.50;72.20
18321;DHT22;54904;54.350;18.664;2022-09-03T09:15:34;20.60;72.20
18321;DHT22;54904;54.350;18.664;2022-09-03T09:18:11;20.70;72.10
18321;DHT22;54904;54.350;18.664;2022-09-03T09:20:47;20.90;72.00
18321;DHT22;54904;54.350;18.664;2022-09-03T09:23:21;20.90;71.50
18321;DHT22;54904;54.350;18.664;2022-09-03T09:25:52;21.00;71.40
18321;DHT22;54904;54.350;18.664;2022-09-03T09:28:21;21.00;70.70
18321;DHT22;54904;54.350;18.664;2022-09-03T09:30:50;21.00;70.40
18321;DHT22;54904;54.350;18.664;2022-09-03T09:33:18;21.00;70.60
18321;DHT22;54904;54.350;18.664;2022-09-03T09:35:47;21.10;70.60
18321;DHT22;54904;54.350;18.664;2022-09-03T09:38:25;21.20;70.90
18321;DHT22;54904;54.350;18.664;2022-09-03T09:40:52;21.30;70.80
18321;DHT22;54904;54.350;18.664;2022-09-03T09:43:21;21.40;70.80
18321;DHT22;54904;54.350;18.664;2022-09-03T09:45:51;21.50;70.80
18321;DHT22;54904;54.350;18.664;2022-09-03T09:48:22;21.70;71.10
18321;DHT22;54904;54.350;18.664;2022-09-03T09:51:04;21.80;71.00
18321;DHT22;54904;54.350;18.664;2022-09-03T09:53:32;21.90;70.90
18321;DHT22;54904;54.350;18.664;2022-09-03T09:55:59;22.00;69.30
18321;DHT22;54904;54.350;18.664;2022-09-03T09:58:29;21.90;68.80
18321;DHT22;54904;54.350;18.664;2022-09-03T10:01:00;21.80;68.90
18321;DHT22;54904;54.350;18.664;2022-09-03T10:03:31;21.80;69.40
18321;DHT22;54904;54.350;18.664;2022-09-03T10:06:06;21.70;68.50
18321;DHT22;54904;54.350;18.664;2022-09-03T10:08:52;21.70;68.00
18321;DHT22;54904;54.350;18.664;2022-09-03T10:11:31;21.70;68.60
18321;DHT22;54904;54.350;18.664;2022-09-03T10:14:03;21.80;69.00
18321;DHT22;54904;54.350;18.664;2022-09-03T10:16:36;22.00;69.30
18321;DHT22;54904;54.350;18.664;2022-09-03T10:19:10;22.00;68.60
18321;DHT22;54904;54.350;18.664;2022-09-03T10:21:44;22.00;68.20
18321;DHT22;54904;54.350;18.664;2022-09-03T10:24:24;22.00;68.40
18321;DHT22;54904;54.350;18.664;2022-09-03T10:26:54;22.10;69.70
18321;DHT22;54904;54.350;18.664;2022-09-03T10:29:23;22.30;69.80
18321;DHT22;54904;54.350;18.664;2022-09-03T10:32:03;22.30;67.70
18321;DHT22;54904;54.350;18.664;2022-09-03T10:34:39;22.30;67.00
18321;DHT22;54904;54.350;18.664;2022-09-03T10:37:24;22.30;66.70
18321;DHT22;54904;54.350;18.664;2022-09-03T10:43:04;22.40;66.70
18321;DHT22;54904;54.350;18.664;2022-09-03T10:45:38;22.50;66.80
18321;DHT22;54904;54.350;18.664;2022-09-03T10:48:28;22.60;66.90
18321;DHT22;54904;54.350;18.664;2022-09-03T10:51:02;22.70;66.90
18321;DHT22;54904;54.350;18.664;2022-09-03T10:53:44;22.70;66.30
18321;DHT22;54904;54.350;18.664;2022-09-03T10:56:18;22.70;66.20
18321;DHT22;54904;54.350;18.664;2022-09-03T10:59:03;22.80;66.00
18321;DHT22;54904;54.350;18.664;2022-09-03T11:01:36;22.80;66.30
18321;DHT22;54904;54.350;18.664;2022-09-03T11:04:21;22.90;66.10
18321;DHT22;54904;54.350;18.664;2022-09-03T11:06:53;23.00;66.30
18321;DHT22;54904;54.350;18.664;2022-09-03T11:09:25;23.10;66.90
18321;DHT22;54904;54.350;18.664;2022-09-03T11:11:56;23.10;66.10
18321;DHT22;54904;54.350;18.664;2022-09-03T11:14:32;23.20;65.90
18321;DHT22;54904;54.350;18.664;2022-09-03T11:17:04;23.30;65.70
18321;DHT22;54904;54.350;18.664;2022-09-03T11:19:36;23.20;66.10
18321;DHT22;54904;54.350;18.664;2022-09-03T11:22:08;23.20;65.80
18321;DHT22;54904;54.350;18.664;2022-09-03T11:24:38;23.20;66.00
18321;DHT22;54904;54.350;18.664;2022-09-03T11:27:18;23.10;65.30
18321;DHT22;54904;54.350;18.664;2022-09-03T11:29:50;22.90;65.60
18321;DHT22;54904;54.350;18.664;2022-09-03T11:32:23;22.90;65.90
18321;DHT22;54904;54.350;18.664;2022-09-03T11:34:53;22.80;65.40
18321;DHT22;54904;54.350;18.664;2022-09-03T11:37:23;22.80;65.60
18321;DHT22;54904;54.350;18.664;2022-09-03T11:40:02;22.80;65.60
18321;DHT22;54904;54.350;18.664;2022-09-03T11:42:33;22.70;64.60
18321;DHT22;54904;54.350;18.664;2022-09-03T11:45:21;22.50;64.20
18321;DHT22;54904;54.350;18.664;2022-09-03T11:47:49;22.50;64.70
18321;DHT22;54904;54.350;18.664;2022-09-03T11:50:21;22.70;64.90
18321;DHT22;54904;54.350;18.664;2022-09-03T11:52:49;22.80;64.90
18321;DHT22;54904;54.350;18.664;2022-09-03T11:55:30;22.90;65.10
18321;DHT22;54904;54.350;18.664;2022-09-03T11:58:09;23.00;65.00
18321;DHT22;54904;54.350;18.664;2022-09-03T12:00:37;23.10;65.10
18321;DHT22;54904;54.350;18.664;2022-09-03T12:03:04;23.10;64.40
18321;DHT22;54904;54.350;18.664;2022-09-03T12:05:38;23.10;64.70
18321;DHT22;54904;54.350;18.664;2022-09-03T12:08:35;23.20;64.40
18321;DHT22;54904;54.350;18.664;2022-09-03T12:11:20;23.10;63.10
18321;DHT22;54904;54.350;18.664;2022-09-03T12:13:53;23.10;63.20
18321;DHT22;54904;54.350;18.664;2022-09-03T12:19:24;23.10;62.40
18321;DHT22;54904;54.350;18.664;2022-09-03T12:21:51;23.00;60.80
18321;DHT22;54904;54.350;18.664;2022-09-03T12:24:21;22.90;61.40
18321;DHT22;54904;54.350;18.664;2022-09-03T12:26:49;22.90;61.90
18321;DHT22;54904;54.350;18.664;2022-09-03T12:29:22;23.00;62.10
18321;DHT22;54904;54.350;18.664;2022-09-03T12:31:49;23.00;61.90
18321;DHT22;54904;54.350;18.664;2022-09-03T12:34:18;23.00;61.40
18321;DHT22;54904;54.350;18.664;2022-09-03T12:36:47;23.00;61.20
18321;DHT22;54904;54.350;18.664;2022-09-03T12:39:16;22.90;61.40
18321;DHT22;54904;54.350;18.664;2022-09-03T12:41:58;22.90;61.10
18321;DHT22;54904;54.350;18.664;2022-09-03T12:44:28;23.10;61.50
18321;DHT22;54904;54.350;18.664;2022-09-03T12:47:04;23.20;61.50
18321;DHT22;54904;54.350;18.664;2022-09-03T12:49:36;23.30;61.00
18321;DHT22;54904;54.350;18.664;2022-09-03T12:52:08;23.30;61.00
18321;DHT22;54904;54.350;18.664;2022-09-03T12:54:41;23.30;63.50
18321;DHT22;54904;54.350;18.664;2022-09-03T12:57:13;23.40;63.40
18321;DHT22;54904;54.350;18.664;2022-09-03T12:59:43;23.40;63.80
18321;DHT22;54904;54.350;18.664;2022-09-03T13:02:16;23.50;62.80
18321;DHT22;54904;54.350;18.664;2022-09-03T13:04:46;23.50;61.50
18321;DHT22;54904;54.350;18.664;2022-09-03T13:07:23;23.60;61.00
18321;DHT22;54904;54.350;18.664;2022-09-03T13:09:51;23.60;61.60
18321;DHT22;54904;54.350;18.664;2022-09-03T13:12:23;23.60;60.40
18321;DHT22;54904;54.350;18.664;2022-09-03T13:14:54;23.60;60.10
18321;DHT22;54904;54.350;18.664;2022-09-03T13:17:44;23.60;60.00
18321;DHT22;54904;54.350;18.664;2022-09-03T13:20:25;23.60;59.00
18321;DHT22;54904;54.350;18.664;2022-09-03T13:23:06;23.50;58.20
18321;DHT22;54904;54.350;18.664;2022-09-03T13:25:46;23.50;58.20
18321;DHT22;54904;54.350;18.664;2022-09-03T13:28:29;23.50;58.80
18321;DHT22;54904;54.350;18.664;2022-09-03T13:31:05;23.40;58.60
18321;DHT22;54904;54.350;18.664;2022-09-03T13:33:37;23.30;58.70
18321;DHT22;54904;54.350;18.664;2022-09-03T13:36:12;23.20;58.80
18321;DHT22;54904;54.350;18.664;2022-09-03T13:38:48;23.20;59.40
18321;DHT22;54904;54.350;18.664;2022-09-03T13:41:28;23.20;59.80
18321;DHT22;54904;54.350;18.664;2022-09-03T13:44:07;23.10;60.00
18321;DHT22;54904;54.350;18.664;2022-09-03T13:46:42;23.00;60.80
18321;DHT22;54904;54.350;18.664;2022-09-03T13:49:22;22.90;61.10
18321;DHT22;54904;54.350;18.664;2022-09-03T13:52:15;22.90;61.60
18321;DHT22;54904;54.350;18.664;2022-09-03T13:54:51;22.90;62.00
18321;DHT22;54904;54.350;18.664;2022-09-03T13:57:27;22.90;62.30
18321;DHT22;54904;54.350;18.664;2022-09-03T14:00:00;22.90;62.70
18321;DHT22;54904;54.350;18.664;2022-09-03T14:02:46;22.90;63.60
18321;DHT22;54904;54.350;18.664;2022-09-03T14:05:22;22.80;63.70
18321;DHT22;54904;54.350;18.664;2022-09-03T14:08:13;22.80;63.90
18321;DHT22;54904;54.350;18.664;2022-09-03T14:10:53;22.80;65.10
18321;DHT22;54904;54.350;18.664;2022-09-03T14:13:29;22.70;65.10
18321;DHT22;54904;54.350;18.664;2022-09-03T14:16:07;22.70;65.00
18321;DHT22;54904;54.350;18.664;2022-09-03T14:18:43;22.50;64.40
18321;DHT22;54904;54.350;18.664;2022-09-03T14:21:16;22.40;64.30
18321;DHT22;54904;54.350;18.664;2022-09-03T14:23:48;22.30;64.40
18321;DHT22;54904;54.350;18.664;2022-09-03T14:26:17;22.20;64.40
18321;DHT22;54904;54.350;18.664;2022-09-03T14:28:48;22.50;64.60
18321;DHT22;54904;54.350;18.664;2022-09-03T14:31:23;22.20;64.20
18321;DHT22;54904;54.350;18.664;2022-09-03T14:33:57;22.20;63.80
18321;DHT22;54904;54.350;18.664;2022-09-03T14:36:30;22.20;63.60
18321;DHT22;54904;54.350;18.664;2022-09-03T14:39:32;22.20;63.20
18321;DHT22;54904;54.350;18.664;2022-09-03T14:42:22;22.10;63.60
18321;DHT22;54904;54.350;18.664;2022-09-03T14:45:12;22.10;63.90
18321;DHT22;54904;54.350;18.664;2022-09-03T14:48:03;22.00;63.60
18321;DHT22;54904;54.350;18.664;2022-09-03T14:50:43;22.10;63.80
18321;DHT22;54904;54.350;18.664;2022-09-03T14:56:16;22.00;64.00
18321;DHT22;54904;54.350;18.664;2022-09-03T14:59:19;22.00;64.10
18321;DHT22;54904;54.350;18.664;2022-09-03T15:01:53;22.00;63.90
18321;DHT22;54904;54.350;18.664;2022-09-03T15:05:04;22.00;63.70
18321;DHT22;54904;54.350;18.664;2022-09-03T15:07:40;22.00;63.50
18321;DHT22;54904;54.350;18.664;2022-09-03T15:10:16;21.90;63.30
18321;DHT22;54904;54.350;18.664;2022-09-03T15:12:48;21.90;63.30
18321;DHT22;54904;54.350;18.664;2022-09-03T15:15:19;21.90;63.00
18321;DHT22;54904;54.350;18.664;2022-09-03T15:18:01;21.90;62.70
18321;DHT22;54904;54.350;18.664;2022-09-03T15:20:41;21.80;62.70
18321;DHT22;54904;54.350;18.664;2022-09-03T15:23:23;21.80;62.70
18321;DHT22;54904;54.350;18.664;2022-09-03T15:29:17;21.70;62.90
18321;DHT22;54904;54.350;18.664;2022-09-03T15:31:52;21.60;63.10
18321;DHT22;54904;54.350;18.664;2022-09-03T15:34:41;21.50;63.50
18321;DHT22;54904;54.350;18.664;2022-09-03T15:37:13;21.50;63.50
18321;DHT22;54904;54.350;18.664;2022-09-03T15:39:44;21.50;63.50
18321;DHT22;54904;54.350;18.664;2022-09-03T15:42:17;21.50;63.70
18321;DHT22;54904;54.350;18.664;2022-09-03T15:44:51;21.50;64.00
18321;DHT22;54904;54.350;18.664;2022-09-03T15:47:35;21.40;64.10
18321;DHT22;54904;54.350;18.664;2022-09-03T15:50:14;21.40;64.40
18321;DHT22;54904;54.350;18.664;2022-09-03T15:52:51;21.30;64.50
18321;DHT22;54904;54.350;18.664;2022-09-03T15:55:25;21.30;64.60
18321;DHT22;54904;54.350;18.664;2022-09-03T15:57:58;21.30;64.90
18321;DHT22;54904;54.350;18.664;2022-09-03T16:00:36;21.30;65.10
18321;DHT22;54904;54.350;18.664;2022-09-03T16:03:08;21.20;65.30